sensor_id;sensor_type;location;lat;lon;timestamp;temperature;humidity
38239;DHT22;24035;48.900;9.188;2023-12-20T00:01:29;6.00;99.90
38239;DHT22;24035;48.900;9.188;2023-12-20T00:03:55;6.00;1.00
38239;DHT22;24035;48.900;9.188;2023-12-20T00:06:20;6.00;1.00
38239;DHT22;24035;48.900;9.188;2023-12-20T00:08:46;6.00;53.70
38239;DHT22;24035;48.900;9.188;2023-12-20T00:11:12;6.00;99.90
38239;DHT22;24035;48.900;9.188;2023-12-20T00:13:37;6.00;99.90
38239;DHT22;24035;48.900;9.188;2023-12-20T00:16:03;5.90;99.90
38239;DHT22;24035;48.900;9.188;2023-12-20T00:18:29;5.90;1.00
38239;DHT22;24035;48.900;9.188;2023-12-20T00:20:55;5.90;1.00
38239;DHT22;24035;48.900;9.188;2023-12-20T00:23:21;5.90;1.00
38239;DHT22;24035;48.900;9.188;2023-12-20T00:25:48;5.90;1.00
38239;DHT22;24035;48.900;9.188;2023-12-20T00:28:14;5.80;99.90
38239;DHT22;24035;48.900;9.188;2023-12-20T00:30:40;5.70;1.00
38239;DHT22;24035;48.900;9.188;2023-12-20T00:33:05;5.70;1.00
38239;DHT22;24035;48.900;9.188;2023-12-20T00:35:32;5.70;1.80
38239;DHT22;24035;48.900;9.188;2023-12-20T00:37:58;5.70;99.90
38239;DHT22;24035;48.900;9.188;2023-12-20T00:40:24;5.70;99.90
38239;DHT22;24035;48.900;9.188;2023-12-20T00:42:50;5.70;1.00
38239;DHT22;24035;48.900;9.188;2023-12-20T00:45:15;5.70;1.00
38239;DHT22;24035;48.900;9.188;2023-12-20T00:47:41;5.60;1.00
38239;DHT22;24035;48.900;9.188;2023-12-20T00:50:08;5.60;1.00
38239;DHT22;24035;48.900;9.188;2023-12-20T00:52:34;5.60;4.50
38239;DHT22;24035;48.900;9.188;2023-12-20T00:55:00;5.50;99.90
38239;DHT22;24035;48.900;9.188;2023-12-20T00:57:25;5.50;1.00
38239;DHT22;24035;48.900;9.188;2023-12-20T00:59:51;5.60;1.00
38239;DHT22;24035;48.900;9.188;2023-12-20T01:02:17;5.60;1.00
38239;DHT22;24035;48.900;9.188;2023-12-20T01:04:42;5.50;7.40
38239;DHT22;24035;48.900;9.188;2023-12-20T01:07:08;5.50;99.90
38239;DHT22;24035;48.900;9.188;2023-12-20T01:09:34;5.50;99.90
38239;DHT22;24035;48.900;9.188;2023-12-20T01:12:00;5.50;99.90
38239;DHT22;24035;48.900;9.188;2023-12-20T01:14:25;5.50;1.00
38239;DHT22;24035;48.900;9.188;2023-12-20T01:16:51;5.40;1.00
38239;DHT22;24035;48.900;9.188;2023-12-20T01:19:17;5.40;1.00
38239;DHT22;24035;48.900;9.188;2023-12-20T01:21:42;5.40;1.00
38239;DHT22;24035;48.900;9.188;2023-12-20T01:24:08;5.40;99.90
38239;DHT22;24035;48.900;9.188;2023-12-20T01:26:34;5.40;99.90
38239;DHT22;24035;48.900;9.188;2023-12-20T01:29:00;5.40;99.90
38239;DHT22;24035;48.900;9.188;2023-12-20T01:31:26;5.40;99.90
38239;DHT22;24035;48.900;9.188;2023-12-20T01:33:53;5.40;1.00
38239;DHT22;24035;48.900;9.188;2023-12-20T01:36:18;5.40;1.00
38239;DHT22;24035;48.900;9.188;2023-12-20T01:38:45;5.40;1.00
38239;DHT22;24035;48.900;9.188;2023-12-20T01:41:10;5.40;1.00
38239;DHT22;24035;48.900;9.188;2023-12-20T01:43:36;5.40;1.00
38239;DHT22;24035;48.900;9.188;2023-12-20T01:46:02;5.40;1.00
38239;DHT22;24035;48.900;9.188;2023-12-20T01:48:29;5.40;1.00
38239;DHT22;24035;48.900;9.188;2023-12-20T01:50:55;5.40;1.00
38239;DHT22;24035;48.900;9.188;2023-12-20T01:53:24;5.50;38.80
38239;DHT22;24035;48.900;9.188;2023-12-20T01:55:52;5.50;99.90
38239;DHT22;24035;48.900;9.188;2023-12-20T01:58:20;5.60;99.90
38239;DHT22;24035;48.900;9.188;2023-12-20T02:00:46;5.50;14.90
38239;DHT22;24035;48.900;9.188;2023-12-20T02:03:13;5.50;99.90
38239;DHT22;24035;48.900;9.188;2023-12-20T02:05:39;5.50;94.70
38239;DHT22;24035;48.900;9.188;2023-12-20T02:08:06;5.50;99.90
38239;DHT22;24035;48.900;9.188;2023-12-20T02:10:32;5.50;99.90
38239;DHT22;24035;48.900;9.188;2023-12-20T02:12:58;5.50;99.90
38239;DHT22;24035;48.900;9.188;2023-12-20T02:15:24;5.50;99.90
38239;DHT22;24035;48.900;9.188;2023-12-20T02:17:50;5.60;1.00
38239;DHT22;24035;48.900;9.188;2023-12-20T02:20:16;5.60;1.00
38239;DHT22;24035;48.900;9.188;2023-12-20T02:22:42;5.70;1.00
38239;DHT22;24035;48.900;9.188;2023-12-20T02:25:07;5.80;1.00
38239;DHT22;24035;48.900;9.188;2023-12-20T02:27:34;5.90;1.00
38239;DHT22;24035;48.900;9.188;2023-12-20T02:30:00;5.90;1.00
38239;DHT22;24035;48.900;9.188;2023-12-20T02:32:26;6.00;1.00
38239;DHT22;24035;48.900;9.188;2023-12-20T02:34:53;6.00;99.90
38239;DHT22;24035;48.900;9.188;2023-12-20T02:37:19;6.00;99.90
38239;DHT22;24035;48.900;9.188;2023-12-20T02:39:44;6.00;99.90
38239;DHT22;24035;48.900;9.188;2023-12-20T02:42:10;6.00;32.30
38239;DHT22;24035;48.900;9.188;2023-12-20T02:47:51;6.10;1.00
38239;DHT22;24035;48.900;9.188;2023-12-20T02:50:17;6.10;1.00
38239;DHT22;24035;48.900;9.188;2023-12-20T02:52:44;6.10;1.00
38239;DHT22;24035;48.900;9.188;2023-12-20T02:55:10;6.10;99.90
38239;DHT22;24035;48.900;9.188;2023-12-20T02:57:37;6.10;99.90
38239;DHT22;24035;48.900;9.188;2023-12-20T03:00:10;6.10;1.00
38239;DHT22;24035;48.900;9.188;2023-12-20T03:02:36;6.10;1.00
38239;DHT22;24035;48.900;9.188;2023-12-20T03:05:02;6.10;1.00
38239;DHT22;24035;48.900;9.188;2023-12-20T03:07:28;6.10;99.90
38239;DHT22;24035;48.900;9.188;2023-12-20T03:09:54;6.00;99.90
38239;DHT22;24035;48.900;9.188;2023-12-20T03:12:20;6.00;48.60
38239;DHT22;24035;48.900;9.188;2023-12-20T03:14:47;6.00;1.80
38239;DHT22;24035;48.900;9.188;2023-12-20T03:17:13;6.00;21.20
38239;DHT22;24035;48.900;9.188;2023-12-20T03:19:38;5.90;1.00
38239;DHT22;24035;48.900;9.188;2023-12-20T03:22:04;5.90;1.00
38239;DHT22;24035;48.900;9.188;2023-12-20T03:24:30;5.90;1.00
38239;DHT22;24035;48.900;9.188;2023-12-20T03:26:55;5.90;1.00
38239;DHT22;24035;48.900;9.188;2023-12-20T03:29:21;5.80;1.00
38239;DHT22;24035;48.900;9.188;2023-12-20T03:31:47;5.80;1.00
38239;DHT22;24035;48.900;9.188;2023-12-20T03:34:12;5.80;1.00
38239;DHT22;24035;48.900;9.188;2023-12-20T03:36:38;5.80;1.00
38239;DHT22;24035;48.900;9.188;2023-12-20T03:39:04;5.80;1.00
38239;DHT22;24035;48.900;9.188;2023-12-20T03:41:30;5.80;1.00
38239;DHT22;24035;48.900;9.188;2023-12-20T03:43:56;5.80;1.00
38239;DHT22;24035;48.900;9.188;2023-12-20T03:46:22;5.80;1.00
38239;DHT22;24035;48.900;9.188;2023-12-20T03:48:47;5.70;1.00
38239;DHT22;24035;48.900;9.188;2023-12-20T03:51:13;5.70;1.00
38239;DHT22;24035;48.900;9.188;2023-12-20T03:53:39;5.70;99.90
38239;DHT22;24035;48.900;9.188;2023-12-20T03:56:06;5.70;99.90
38239;DHT22;24035;48.900;9.188;2023-12-20T03:58:31;5.70;58.00
38239;DHT22;24035;48.900;9.188;2023-12-20T04:00:57;5.70;85.30
38239;DHT22;24035;48.900;9.188;2023-12-20T04:03:23;5.70;99.90
38239;DHT22;24035;48.900;9.188;2023-12-20T04:05:49;5.70;99.90
38239;DHT22;24035;48.900;9.188;2023-12-20T04:08:15;5.70;96.80
38239;DHT22;24035;48.900;9.188;2023-12-20T04:10:40;5.60;99.90
38239;DHT22;24035;48.900;9.188;2023-12-20T04:13:06;5.70;99.90
38239;DHT22;24035;48.900;9.188;2023-12-20T04:15:32;5.70;99.90
38239;DHT22;24035;48.900;9.188;2023-12-20T04:17:58;5.70;99.90
38239;DHT22;24035;48.900;9.188;2023-12-20T04:20:23;5.60;99.90
38239;DHT22;24035;48.900;9.188;2023-12-20T04:22:49;5.60;1.00
38239;DHT22;24035;48.900;9.188;2023-12-20T04:25:14;5.60;1.00
38239;DHT22;24035;48.900;9.188;2023-12-20T04:27:40;5.60;28.50
38239;DHT22;24035;48.900;9.188;2023-12-20T04:30:06;5.60;72.10
38239;DHT22;24035;48.900;9.188;2023-12-20T04:32:33;5.60;16.20
38239;DHT22;24035;48.900;9.188;2023-12-20T04:34:58;5.60;1.00
38239;DHT22;24035;48.900;9.188;2023-12-20T04:37:24;5.60;12.90
38239;DHT22;24035;48.900;9.188;2023-12-20T04:39:50;5.60;1.00
38239;DHT22;24035;48.900;9.188;2023-12-20T04:42:16;5.60;1.00
38239;DHT22;24035;48.900;9.188;2023-12-20T04:44:41;5.60;1.00
38239;DHT22;24035;48.900;9.188;2023-12-20T04:47:09;5.60;1.00
38239;DHT22;24035;48.900;9.188;2023-12-20T04:49:35;5.60;1.00
38239;DHT22;24035;48.900;9.188;2023-12-20T04:52:01;5.60;1.00
38239;DHT22;24035;48.900;9.188;2023-12-20T04:54:26;5.60;1.00
38239;DHT22;24035;48.900;9.188;2023-12-20T04:56:52;5.60;45.80
38239;DHT22;24035;48.900;9.188;2023-12-20T04:59:18;5.60;40.80
38239;DHT22;24035;48.900;9.188;2023-12-20T05:01:43;5.60;22.20
38239;DHT22;24035;48.900;9.188;2023-12-20T05:04:09;5.70;5.20
38239;DHT22;24035;48.900;9.188;2023-12-20T05:06:35;5.70;35.60
38239;DHT22;24035;48.900;9.188;2023-12-20T05:09:01;5.70;1.00
38239;DHT22;24035;48.900;9.188;2023-12-20T05:11:27;5.80;1.00
38239;DHT22;24035;48.900;9.188;2023-12-20T05:13:53;5.80;1.00
38239;DHT22;24035;48.900;9.188;2023-12-20T05:16:18;5.80;1.00
38239;DHT22;24035;48.900;9.188;2023-12-20T05:18:45;5.80;1.00
38239;DHT22;24035;48.900;9.188;2023-12-20T05:21:11;5.90;1.00
38239;DHT22;24035;48.900;9.188;2023-12-20T05:23:37;5.90;1.00
38239;DHT22;24035;48.900;9.188;2023-12-20T05:26:03;5.90;1.00
38239;DHT22;24035;48.900;9.188;2023-12-20T05:28:29;5.90;1.00
38239;DHT22;24035;48.900;9.188;2023-12-20T05:30:54;5.90;57.60
38239;DHT22;24035;48.900;9.188;2023-12-20T05:33:20;5.90;99.90
38239;DHT22;24035;48.900;9.188;2023-12-20T05:35:46;5.90;1.00
38239;DHT22;24035;48.900;9.188;2023-12-20T05:38:11;5.90;1.00
38239;DHT22;24035;48.900;9.188;2023-12-20T05:40:37;5.80;1.00
38239;DHT22;24035;48.900;9.188;2023-12-20T05:43:03;5.80;99.90
38239;DHT22;24035;48.900;9.188;2023-12-20T05:45:28;5.90;99.90
38239;DHT22;24035;48.900;9.188;2023-12-20T05:47:55;5.90;1.00
38239;DHT22;24035;48.900;9.188;2023-12-20T05:50:21;5.90;1.00
38239;DHT22;24035;48.900;9.188;2023-12-20T05:52:46;5.90;1.00
38239;DHT22;24035;48.900;9.188;2023-12-20T05:55:12;5.90;1.00
38239;DHT22;24035;48.900;9.188;2023-12-20T05:57:38;5.90;1.00
38239;DHT22;24035;48.900;9.188;2023-12-20T06:00:04;5.90;77.90
38239;DHT22;24035;48.900;9.188;2023-12-20T06:02:30;6.00;61.00
38239;DHT22;24035;48.900;9.188;2023-12-20T06:04:56;6.00;55.20
38239;DHT22;24035;48.900;9.188;2023-12-20T06:07:21;6.00;1.00
38239;DHT22;24035;48.900;9.188;2023-12-20T06:09:47;6.00;1.00
38239;DHT22;24035;48.900;9.188;2023-12-20T06:12:13;6.10;1.00
38239;DHT22;24035;48.900;9.188;2023-12-20T06:14:38;6.00;1.00
38239;DHT22;24035;48.900;9.188;2023-12-20T06:17:04;6.00;1.00
38239;DHT22;24035;48.900;9.188;2023-12-20T06:19:30;6.00;1.00
38239;DHT22;24035;48.900;9.188;2023-12-20T06:21:55;6.00;1.00
38239;DHT22;24035;48.900;9.188;2023-12-20T06:24:21;6.00;1.00
38239;DHT22;24035;48.900;9.188;2023-12-20T06:26:48;6.00;1.00
38239;DHT22;24035;48.900;9.188;2023-12-20T06:29:14;6.00;1.00
38239;DHT22;24035;48.900;9.188;2023-12-20T06:31:39;6.00;11.30
38239;DHT22;24035;48.900;9.188;2023-12-20T06:34:05;6.00;99.90
38239;DHT22;24035;48.900;9.188;2023-12-20T06:36:31;6.00;99.90
38239;DHT22;24035;48.900;9.188;2023-12-20T06:38:57;6.00;99.90
38239;DHT22;24035;48.900;9.188;2023-12-20T06:41:23;6.00;99.90
38239;DHT22;24035;48.900;9.188;2023-12-20T06:43:50;6.00;99.90
38239;DHT22;24035;48.900;9.188;2023-12-20T06:46:16;6.00;99.90
38239;DHT22;24035;48.900;9.188;2023-12-20T06:48:42;6.00;99.90
38239;DHT22;24035;48.900;9.188;2023-12-20T06:51:12;6.00;80.40
38239;DHT22;24035;48.900;9.188;2023-12-20T06:53:38;6.00;58.50
38239;DHT22;24035;48.900;9.188;2023-12-20T06:56:04;6.00;10.70
38239;DHT22;24035;48.900;9.188;2023-12-20T06:58:29;6.00;1.80
38239;DHT22;24035;48.900;9.188;2023-12-20T07:00:55;6.00;1.00
38239;DHT22;24035;48.900;9.188;2023-12-20T07:03:21;6.00;1.00
38239;DHT22;24035;48.900;9.188;2023-12-20T07:05:47;6.00;1.00
38239;DHT22;24035;48.900;9.188;2023-12-20T07:08:12;6.00;99.90
38239;DHT22;24035;48.900;9.188;2023-12-20T07:10:39;6.00;99.90
38239;DHT22;24035;48.900;9.188;2023-12-20T07:13:05;6.00;34.60
38239;DHT22;24035;48.900;9.188;2023-12-20T07:15:31;6.00;1.00
38239;DHT22;24035;48.900;9.188;2023-12-20T07:17:57;6.00;1.00
38239;DHT22;24035;48.900;9.188;2023-12-20T07:20:26;6.00;1.00
38239;DHT22;24035;48.900;9.188;2023-12-20T07:22:51;6.00;9.70
38239;DHT22;24035;48.900;9.188;2023-12-20T07:25:17;6.00;99.90
38239;DHT22;24035;48.900;9.188;2023-12-20T07:27:43;6.00;99.90
38239;DHT22;24035;48.900;9.188;2023-12-20T07:30:09;6.00;99.90
38239;DHT22;24035;48.900;9.188;2023-12-20T07:32:35;6.00;99.90
38239;DHT22;24035;48.900;9.188;2023-12-20T07:35:01;5.90;99.90
38239;DHT22;24035;48.900;9.188;2023-12-20T07:37:28;5.90;99.90
38239;DHT22;24035;48.900;9.188;2023-12-20T07:39:54;5.90;7.10
38239;DHT22;24035;48.900;9.188;2023-12-20T07:42:20;5.90;1.00
38239;DHT22;24035;48.900;9.188;2023-12-20T07:44:47;5.80;1.00
38239;DHT22;24035;48.900;9.188;2023-12-20T07:47:13;5.80;99.90
38239;DHT22;24035;48.900;9.188;2023-12-20T07:49:42;5.80;99.90
38239;DHT22;24035;48.900;9.188;2023-12-20T07:52:08;5.70;1.00
38239;DHT22;24035;48.900;9.188;2023-12-20T07:54:35;5.70;1.00
38239;DHT22;24035;48.900;9.188;2023-12-20T07:57:01;5.60;1.00
38239;DHT22;24035;48.900;9.188;2023-12-20T07:59:26;5.50;1.00
38239;DHT22;24035;48.900;9.188;2023-12-20T08:01:52;5.50;1.00
38239;DHT22;24035;48.900;9.188;2023-12-20T08:04:18;5.40;1.00
38239;DHT22;24035;48.900;9.188;2023-12-20T08:06:43;5.40;1.00
38239;DHT22;24035;48.900;9.188;2023-12-20T08:09:10;5.30;99.90
38239;DHT22;24035;48.900;9.188;2023-12-20T08:11:35;5.30;99.90
38239;DHT22;24035;48.900;9.188;2023-12-20T08:14:01;5.30;99.90
38239;DHT22;24035;48.900;9.188;2023-12-20T08:16:27;5.20;97.20
38239;DHT22;24035;48.900;9.188;2023-12-20T08:18:53;5.20;1.00
38239;DHT22;24035;48.900;9.188;2023-12-20T08:21:18;5.20;1.00
38239;DHT22;24035;48.900;9.188;2023-12-20T08:23:46;5.10;1.00
38239;DHT22;24035;48.900;9.188;2023-12-20T08:26:13;5.10;1.00
38239;DHT22;24035;48.900;9.188;2023-12-20T08:28:38;5.10;1.00
38239;DHT22;24035;48.900;9.188;2023-12-20T08:31:04;5.10;99.90
38239;DHT22;24035;48.900;9.188;2023-12-20T08:33:30;5.10;99.90
38239;DHT22;24035;48.900;9.188;2023-12-20T08:35:57;5.10;99.90
38239;DHT22;24035;48.900;9.188;2023-12-20T08:38:23;5.20;99.90
38239;DHT22;24035;48.900;9.188;2023-12-20T08:40:49;5.20;99.90
38239;DHT22;24035;48.900;9.188;2023-12-20T08:43:14;5.10;99.90
38239;DHT22;24035;48.900;9.188;2023-12-20T08:45:40;5.10;99.90
38239;DHT22;24035;48.900;9.188;2023-12-20T08:48:06;5.10;99.90
38239;DHT22;24035;48.900;9.188;2023-12-20T08:50:32;5.10;99.90
38239;DHT22;24035;48.900;9.188;2023-12-20T08:52:58;5.10;99.90
38239;DHT22;24035;48.900;9.188;2023-12-20T08:55:24;5.10;99.90
38239;DHT22;24035;48.900;9.188;2023-12-20T08:57:49;5.20;99.90
38239;DHT22;24035;48.900;9.188;2023-12-20T09:00:16;5.20;99.90
38239;DHT22;24035;48.900;9.188;2023-12-20T09:02:42;5.20;99.90
38239;DHT22;24035;48.900;9.188;2023-12-20T09:05:08;5.30;98.70
38239;DHT22;24035;48.900;9.188;2023-12-20T09:07:34;5.30;1.00
38239;DHT22;24035;48.900;9.188;2023-12-20T09:09:59;5.20;1.00
38239;DHT22;24035;48.900;9.188;2023-12-20T09:12:25;5.20;1.00
38239;DHT22;24035;48.900;9.188;2023-12-20T09:14:52;5.20;23.00
38239;DHT22;24035;48.900;9.188;2023-12-20T09:17:18;5.30;1.00
38239;DHT22;24035;48.900;9.188;2023-12-20T09:19:44;5.30;1.00
38239;DHT22;24035;48.900;9.188;2023-12-20T09:22:11;5.30;1.00
38239;DHT22;24035;48.900;9.188;2023-12-20T09:24:36;5.40;99.90
38239;DHT22;24035;48.900;9.188;2023-12-20T09:27:02;5.40;99.90
38239;DHT22;24035;48.900;9.188;2023-12-20T09:29:29;5.40;1.00
38239;DHT22;24035;48.900;9.188;2023-12-20T09:31:54;5.50;99.90
38239;DHT22;24035;48.900;9.188;2023-12-20T09:34:20;5.50;99.90
38239;DHT22;24035;48.900;9.188;2023-12-20T09:36:46;5.60;99.90
38239;DHT22;24035;48.900;9.188;2023-12-20T09:39:17;5.60;1.00
38239;DHT22;24035;48.900;9.188;2023-12-20T09:41:53;5.60;1.00
38239;DHT22;24035;48.900;9.188;2023-12-20T09:44:21;5.70;99.90
38239;DHT22;24035;48.900;9.188;2023-12-20T09:46:50;5.80;1.00
38239;DHT22;24035;48.900;9.188;2023-12-20T09:49:18;5.80;1.00
38239;DHT22;24035;48.900;9.188;2023-12-20T09:51:46;5.80;1.00
38239;DHT22;24035;48.900;9.188;2023-12-20T09:54:15;5.80;1.00
38239;DHT22;24035;48.900;9.188;2023-12-20T10:00:05;5.90;99.90
38239;DHT22;24035;48.900;9.188;2023-12-20T10:02:32;6.00;38.10
38239;DHT22;24035;48.900;9.188;2023-12-20T10:05:00;6.00;1.00
38239;DHT22;24035;48.900;9.188;2023-12-20T10:07:26;6.00;1.00
38239;DHT22;24035;48.900;9.188;2023-12-20T10:09:54;6.00;1.00
38239;DHT22;24035;48.900;9.188;2023-12-20T10:12:21;6.10;1.00
38239;DHT22;24035;48.900;9.188;2023-12-20T10:14:47;6.00;1.00
38239;DHT22;24035;48.900;9.188;2023-12-20T10:17:12;6.10;1.00
38239;DHT22;24035;48.900;9.188;2023-12-20T10:19:38;6.10;1.00
38239;DHT22;24035;48.900;9.188;2023-12-20T10:22:04;6.10;1.00
38239;DHT22;24035;48.900;9.188;2023-12-20T10:24:30;6.10;1.00
38239;DHT22;24035;48.900;9.188;2023-12-20T10:27:06;6.10;1.00
38239;DHT22;24035;48.900;9.188;2023-12-20T10:29:38;6.10;1.00
38239;DHT22;24035;48.900;9.188;2023-12-20T10:32:24;6.20;1.00
38239;DHT22;24035;48.900;9.188;2023-12-20T10:34:51;6.20;1.00
38239;DHT22;24035;48.900;9.188;2023-12-20T10:37:16;6.30;1.00
38239;DHT22;24035;48.900;9.188;2023-12-20T10:39:43;6.30;1.00
38239;DHT22;24035;48.900;9.188;2023-12-20T10:42:11;6.50;1.00
38239;DHT22;24035;48.900;9.188;2023-12-20T10:44:37;6.60;1.00
38239;DHT22;24035;48.900;9.188;2023-12-20T10:47:04;6.80;99.90
38239;DHT22;24035;48.900;9.188;2023-12-20T10:49:31;6.80;99.90
38239;DHT22;24035;48.900;9.188;2023-12-20T10:51:59;6.80;99.90
38239;DHT22;24035;48.900;9.188;2023-12-20T10:54:27;6.70;99.90
38239;DHT22;24035;48.900;9.188;2023-12-20T10:56:54;6.80;99.90
38239;DHT22;24035;48.900;9.188;2023-12-20T10:59:22;6.90;99.90
38239;DHT22;24035;48.900;9.188;2023-12-20T11:01:50;7.00;55.70
38239;DHT22;24035;48.900;9.188;2023-12-20T11:07:25;7.20;1.00
38239;DHT22;24035;48.900;9.188;2023-12-20T11:10:22;7.30;1.00
38239;DHT22;24035;48.900;9.188;2023-12-20T11:12:52;7.30;1.00
38239;DHT22;24035;48.900;9.188;2023-12-20T11:15:19;7.30;1.00
38239;DHT22;24035;48.900;9.188;2023-12-20T11:17:46;7.20;1.00
38239;DHT22;24035;48.900;9.188;2023-12-20T11:20:12;7.30;1.00
38239;DHT22;24035;48.900;9.188;2023-12-20T11:22:38;7.20;1.00
38239;DHT22;24035;48.900;9.188;2023-12-20T11:25:10;7.20;1.00
38239;DHT22;24035;48.900;9.188;2023-12-20T11:27:43;7.30;1.00
38239;DHT22;24035;48.900;9.188;2023-12-20T11:30:09;7.40;1.00
38239;DHT22;24035;48.900;9.188;2023-12-20T11:32:36;7.40;1.00
38239;DHT22;24035;48.900;9.188;2023-12-20T11:37:38;7.20;1.00
38239;DHT22;24035;48.900;9.188;2023-12-20T11:40:08;7.10;1.00
38239;DHT22;24035;48.900;9.188;2023-12-20T11:42:44;7.10;1.00
38239;DHT22;24035;48.900;9.188;2023-12-20T11:45:15;7.00;1.00
38239;DHT22;24035;48.900;9.188;2023-12-20T11:47:43;6.90;1.00
38239;DHT22;24035;48.900;9.188;2023-12-20T11:50:10;6.90;1.00
38239;DHT22;24035;48.900;9.188;2023-12-20T11:52:36;6.80;1.00
38239;DHT22;24035;48.900;9.188;2023-12-20T11:55:03;6.80;1.00
38239;DHT22;24035;48.900;9.188;2023-12-20T11:57:30;6.80;1.00
38239;DHT22;24035;48.900;9.188;2023-12-20T11:59:55;6.80;1.00
38239;DHT22;24035;48.900;9.188;2023-12-20T12:02:21;6.70;1.00
38239;DHT22;24035;48.900;9.188;2023-12-20T12:04:50;6.80;1.00
38239;DHT22;24035;48.900;9.188;2023-12-20T12:07:18;6.90;1.00
38239;DHT22;24035;48.900;9.188;2023-12-20T12:09:45;7.10;1.00
38239;DHT22;24035;48.900;9.188;2023-12-20T12:20:09;7.40;1.00
38239;DHT22;24035;48.900;9.188;2023-12-20T12:22:35;7.40;1.00
38239;DHT22;24035;48.900;9.188;2023-12-20T12:25:12;7.50;1.00
38239;DHT22;24035;48.900;9.188;2023-12-20T12:27:42;7.50;1.00
38239;DHT22;24035;48.900;9.188;2023-12-20T12:30:08;7.40;1.00
38239;DHT22;24035;48.900;9.188;2023-12-20T12:32:35;7.40;1.00
38239;DHT22;24035;48.900;9.188;2023-12-20T12:35:04;7.40;1.00
38239;DHT22;24035;48.900;9.188;2023-12-20T12:37:38;7.30;1.00
38239;DHT22;24035;48.900;9.188;2023-12-20T12:40:10;7.40;1.00
38239;DHT22;24035;48.900;9.188;2023-12-20T12:42:39;7.50;1.00
38239;DHT22;24035;48.900;9.188;2023-12-20T12:45:06;7.40;1.00
38239;DHT22;24035;48.900;9.188;2023-12-20T12:47:36;7.40;1.00
38239;DHT22;24035;48.900;9.188;2023-12-20T12:50:02;7.30;1.00
38239;DHT22;24035;48.900;9.188;2023-12-20T12:52:28;7.30;1.00
38239;DHT22;24035;48.900;9.188;2023-12-20T12:54:53;7.20;1.00
38239;DHT22;24035;48.900;9.188;2023-12-20T12:57:20;7.20;1.00
38239;DHT22;24035;48.900;9.188;2023-12-20T12:59:46;7.30;1.00
38239;DHT22;24035;48.900;9.188;2023-12-20T13:02:15;7.20;1.00
38239;DHT22;24035;48.900;9.188;2023-12-20T13:04:41;7.30;1.00
38239;DHT22;24035;48.900;9.188;2023-12-20T13:07:09;7.30;1.00
38239;DHT22;24035;48.900;9.188;2023-12-20T13:09:38;7.20;1.00
38239;DHT22;24035;48.900;9.188;2023-12-20T13:12:06;7.20;1.00
38239;DHT22;24035;48.900;9.188;2023-12-20T13:14:33;7.00;1.00
38239;DHT22;24035;48.900;9.188;2023-12-20T13:17:00;7.00;1.00
38239;DHT22;24035;48.900;9.188;2023-12-20T13:19:26;7.00;1.00
38239;DHT22;24035;48.900;9.188;2023-12-20T13:21:52;7.10;1.00
38239;DHT22;24035;48.900;9.188;2023-12-20T13:24:18;7.20;1.00
38239;DHT22;24035;48.900;9.188;2023-12-20T13:26:44;7.20;1.00
38239;DHT22;24035;48.900;9.188;2023-12-20T13:29:10;7.20;1.00
38239;DHT22;24035;48.900;9.188;2023-12-20T13:31:36;7.30;1.00
38239;DHT22;24035;48.900;9.188;2023-12-20T13:34:02;7.20;1.00
38239;DHT22;24035;48.900;9.188;2023-12-20T13:36:29;7.10;1.00
38239;DHT22;24035;48.900;9.188;2023-12-20T13:38:54;7.10;1.00
38239;DHT22;24035;48.900;9.188;2023-12-20T13:41:20;7.00;1.00
38239;DHT22;24035;48.900;9.188;2023-12-20T13:43:46;6.90;1.00
38239;DHT22;24035;48.900;9.188;2023-12-20T13:46:11;6.80;1.00
38239;DHT22;24035;48.900;9.188;2023-12-20T13:48:37;6.80;1.00
38239;DHT22;24035;48.900;9.188;2023-12-20T13:51:03;6.70;10.10
38239;DHT22;24035;48.900;9.188;2023-12-20T13:53:29;6.60;99.90
38239;DHT22;24035;48.900;9.188;2023-12-20T13:55:55;6.50;99.90
38239;DHT22;24035;48.900;9.188;2023-12-20T13:58:21;6.40;99.90
38239;DHT22;24035;48.900;9.188;2023-12-20T14:00:46;6.40;99.90
38239;DHT22;24035;48.900;9.188;2023-12-20T14:03:12;6.40;99.90
38239;DHT22;24035;48.900;9.188;2023-12-20T14:05:38;6.30;1.00
38239;DHT22;24035;48.900;9.188;2023-12-20T14:08:04;6.20;1.00
38239;DHT22;24035;48.900;9.188;2023-12-20T14:10:30;6.20;1.00
38239;DHT22;24035;48.900;9.188;2023-12-20T14:12:56;6.20;1.00
38239;DHT22;24035;48.900;9.188;2023-12-20T14:15:22;6.10;1.00
38239;DHT22;24035;48.900;9.188;2023-12-20T14:17:51;6.00;1.00
38239;DHT22;24035;48.900;9.188;2023-12-20T14:20:16;5.90;1.00
38239;DHT22;24035;48.900;9.188;2023-12-20T14:22:43;5.90;1.00
38239;DHT22;24035;48.900;9.188;2023-12-20T14:25:15;5.90;1.00
38239;DHT22;24035;48.900;9.188;2023-12-20T14:27:42;5.80;99.90
38239;DHT22;24035;48.900;9.188;2023-12-20T14:30:11;5.70;99.90
38239;DHT22;24035;48.900;9.188;2023-12-20T14:32:37;5.60;1.00
38239;DHT22;24035;48.900;9.188;2023-12-20T14:35:05;5.50;1.00
38239;DHT22;24035;48.900;9.188;2023-12-20T14:37:31;5.50;99.90
38239;DHT22;24035;48.900;9.188;2023-12-20T14:39:56;5.50;99.90
38239;DHT22;24035;48.900;9.188;2023-12-20T14:42:22;5.50;99.90
38239;DHT22;24035;48.900;9.188;2023-12-20T14:44:48;5.40;1.00
38239;DHT22;24035;48.900;9.188;2023-12-20T14:47:13;5.30;1.00
38239;DHT22;24035;48.900;9.188;2023-12-20T14:49:41;5.30;1.00
38239;DHT22;24035;48.900;9.188;2023-12-20T14:52:08;5.40;1.00
38239;DHT22;24035;48.900;9.188;2023-12-20T14:54:37;5.40;1.00
38239;DHT22;24035;48.900;9.188;2023-12-20T14:57:02;5.40;1.00
38239;DHT22;24035;48.900;9.188;2023-12-20T14:59:28;5.40;1.00
38239;DHT22;24035;48.900;9.188;2023-12-20T15:01:54;5.40;1.00
38239;DHT22;24035;48.900;9.188;2023-12-20T15:04:20;5.40;1.00
38239;DHT22;24035;48.900;9.188;2023-12-20T15:06:54;5.40;1.00
38239;DHT22;24035;48.900;9.188;2023-12-20T15:09:20;5.40;99.90
38239;DHT22;24035;48.900;9.188;2023-12-20T15:11:45;5.40;99.90
38239;DHT22;24035;48.900;9.188;2023-12-20T15:14:11;5.40;1.00
38239;DHT22;24035;48.900;9.188;2023-12-20T15:16:40;5.40;1.00
38239;DHT22;24035;48.900;9.188;2023-12-20T15:19:05;5.30;1.00
38239;DHT22;24035;48.900;9.188;2023-12-20T15:21:31;5.30;1.00
38239;DHT22;24035;48.900;9.188;2023-12-20T15:23:59;5.30;99.90
38239;DHT22;24035;48.900;9.188;2023-12-20T15:26:34;5.30;99.90
38239;DHT22;24035;48.900;9.188;2023-12-20T15:29:00;5.30;99.90
38239;DHT22;24035;48.900;9.188;2023-12-20T15:31:27;5.30;99.90
38239;DHT22;24035;48.900;9.188;2023-12-20T15:33:54;5.20;99.90
38239;DHT22;24035;48.900;9.188;2023-12-20T15:36:21;5.20;99.90
38239;DHT22;24035;48.900;9.188;2023-12-20T15:38:48;5.20;99.90
38239;DHT22;24035;48.900;9.188;2023-12-20T15:41:21;5.20;99.90
38239;DHT22;24035;48.900;9.188;2023-12-20T15:43:47;5.30;99.90
38239;DHT22;24035;48.900;9.188;2023-12-20T15:46:13;5.30;99.90
38239;DHT22;24035;48.900;9.188;2023-12-20T15:48:39;5.30;1.00
38239;DHT22;24035;48.900;9.188;2023-12-20T15:51:06;5.30;1.00
38239;DHT22;24035;48.900;9.188;2023-12-20T15:53:31;5.30;1.00
38239;DHT22;24035;48.900;9.188;2023-12-20T15:55:58;5.30;1.00
38239;DHT22;24035;48.900;9.188;2023-12-20T15:58:23;5.30;1.00
38239;DHT22;24035;48.900;9.188;2023-12-20T16:00:49;5.30;99.90
38239;DHT22;24035;48.900;9.188;2023-12-20T16:03:16;5.30;99.90
38239;DHT22;24035;48.900;9.188;2023-12-20T16:05:42;5.30;99.90
38239;DHT22;24035;48.900;9.188;2023-12-20T16:08:07;5.30;99.90
38239;DHT22;24035;48.900;9.188;2023-12-20T16:10:33;5.30;99.90